sensor_id;sensor_type;location;lat;lon;timestamp;P1;durP1;ratioP1;P2;durP2;ratioP2
2638;SDS011;1329;51.384;7.122;2022-08-19T00:02:13;11.23;;;10.13;;
2638;SDS011;1329;51.384;7.122;2022-08-19T00:04:40;11.85;;;9.95;;
2638;SDS011;1329;51.384;7.122;2022-08-19T00:07:11;11.60;;;10.50;;
2638;SDS011;1329;51.384;7.122;2022-08-19T00:09:38;11.45;;;10.25;;
2638;SDS011;1329;51.384;7.122;2022-08-19T00:12:08;11.50;;;10.40;;
2638;SDS011;1329;51.384;7.122;2022-08-19T00:14:35;11.05;;;10.05;;
2638;SDS011;1329;51.384;7.122;2022-08-19T00:17:04;11.45;;;10.25;;
2638;SDS011;1329;51.384;7.122;2022-08-19T00:19:32;10.57;;;9.57;;
2638;SDS011;1329;51.384;7.122;2022-08-19T00:22:01;11.25;;;10.15;;
2638;SDS011;1329;51.384;7.122;2022-08-19T00:24:28;11.32;;;10.25;;
2638;SDS011;1329;51.384;7.122;2022-08-19T00:26:57;12.55;;;10.65;;
2638;SDS011;1329;51.384;7.122;2022-08-19T00:29:27;11.60;;;10.40;;
2638;SDS011;1329;51.384;7.122;2022-08-19T00:31:55;10.85;;;9.85;;
2638;SDS011;1329;51.384;7.122;2022-08-19T00:34:25;10.35;;;9.23;;
2638;SDS011;1329;51.384;7.122;2022-08-19T00:36:53;10.80;;;9.70;;
2638;SDS011;1329;51.384;7.122;2022-08-19T00:39:21;11.52;;;10.32;;
2638;SDS011;1329;51.384;7.122;2022-08-19T00:41:49;10.02;;;9.02;;
2638;SDS011;1329;51.384;7.122;2022-08-19T00:44:18;10.35;;;9.38;;
2638;SDS011;1329;51.384;7.122;2022-08-19T00:46:50;9.25;;;8.45;;
2638;SDS011;1329;51.384;7.122;2022-08-19T00:49:20;9.90;;;8.93;;
2638;SDS011;1329;51.384;7.122;2022-08-19T00:51:54;9.85;;;8.88;;
2638;SDS011;1329;51.384;7.122;2022-08-19T00:54:28;9.35;;;8.48;;
2638;SDS011;1329;51.384;7.122;2022-08-19T00:56:58;10.27;;;8.90;;
2638;SDS011;1329;51.384;7.122;2022-08-19T00:59:28;10.27;;;8.80;;
2638;SDS011;1329;51.384;7.122;2022-08-19T01:01:57;10.23;;;9.13;;
2638;SDS011;1329;51.384;7.122;2022-08-19T01:04:25;9.68;;;8.77;;
2638;SDS011;1329;51.384;7.122;2022-08-19T01:06:52;9.40;;;8.55;;
2638;SDS011;1329;51.384;7.122;2022-08-19T01:09:19;10.20;;;9.20;;
2638;SDS011;1329;51.384;7.122;2022-08-19T01:11:47;14.13;;;11.43;;
2638;SDS011;1329;51.384;7.122;2022-08-19T01:14:14;12.40;;;10.48;;
2638;SDS011;1329;51.384;7.122;2022-08-19T01:16:42;9.90;;;8.98;;
2638;SDS011;1329;51.384;7.122;2022-08-19T01:19:12;9.88;;;8.75;;
2638;SDS011;1329;51.384;7.122;2022-08-19T01:21:47;9.68;;;8.77;;
2638;SDS011;1329;51.384;7.122;2022-08-19T01:24:20;9.70;;;8.57;;
2638;SDS011;1329;51.384;7.122;2022-08-19T01:26:48;9.23;;;8.32;;
2638;SDS011;1329;51.384;7.122;2022-08-19T01:29:15;9.32;;;8.43;;
2638;SDS011;1329;51.384;7.122;2022-08-19T01:31:42;10.10;;;9.10;;
2638;SDS011;1329;51.384;7.122;2022-08-19T01:34:10;10.68;;;9.60;;
2638;SDS011;1329;51.384;7.122;2022-08-19T01:36:38;9.32;;;8.43;;
2638;SDS011;1329;51.384;7.122;2022-08-19T01:39:11;8.82;;;7.78;;
2638;SDS011;1329;51.384;7.122;2022-08-19T01:41:43;9.15;;;8.18;;
2638;SDS011;1329;51.384;7.122;2022-08-19T01:44:11;9.00;;;7.93;;
2638;SDS011;1329;51.384;7.122;2022-08-19T01:46:38;8.77;;;7.88;;
2638;SDS011;1329;51.384;7.122;2022-08-19T01:49:06;8.63;;;7.85;;
2638;SDS011;1329;51.384;7.122;2022-08-19T01:51:35;8.98;;;8.18;;
2638;SDS011;1329;51.384;7.122;2022-08-19T01:54:02;8.60;;;7.80;;
2638;SDS011;1329;51.384;7.122;2022-08-19T01:56:30;9.40;;;8.40;;
2638;SDS011;1329;51.384;7.122;2022-08-19T01:59:00;8.95;;;7.93;;
2638;SDS011;1329;51.384;7.122;2022-08-19T02:01:31;8.13;;;7.32;;
2638;SDS011;1329;51.384;7.122;2022-08-19T02:03:59;9.02;;;8.13;;
2638;SDS011;1329;51.384;7.122;2022-08-19T02:06:26;8.55;;;7.60;;
2638;SDS011;1329;51.384;7.122;2022-08-19T02:08:54;8.45;;;7.55;;
2638;SDS011;1329;51.384;7.122;2022-08-19T02:11:23;7.85;;;7.15;;
2638;SDS011;1329;51.384;7.122;2022-08-19T02:13:56;8.85;;;7.93;;
2638;SDS011;1329;51.384;7.122;2022-08-19T02:16:27;8.75;;;7.95;;
2638;SDS011;1329;51.384;7.122;2022-08-19T02:18:55;8.43;;;7.53;;
2638;SDS011;1329;51.384;7.122;2022-08-19T02:21:25;9.15;;;8.25;;
2638;SDS011;1329;51.384;7.122;2022-08-19T02:23:54;8.07;;;7.38;;
2638;SDS011;1329;51.384;7.122;2022-08-19T02:26:21;7.90;;;7.15;;
2638;SDS011;1329;51.384;7.122;2022-08-19T02:28:48;8.15;;;7.45;;
2638;SDS011;1329;51.384;7.122;2022-08-19T02:31:19;8.40;;;7.60;;
2638;SDS011;1329;51.384;7.122;2022-08-19T02:33:48;7.68;;;7.00;;
2638;SDS011;1329;51.384;7.122;2022-08-19T02:36:17;8.45;;;7.65;;
2638;SDS011;1329;51.384;7.122;2022-08-19T02:38:45;7.45;;;6.75;;
2638;SDS011;1329;51.384;7.122;2022-08-19T02:41:13;7.32;;;6.72;;
2638;SDS011;1329;51.384;7.122;2022-08-19T02:43:44;7.38;;;6.78;;
2638;SDS011;1329;51.384;7.122;2022-08-19T02:46:14;7.55;;;6.95;;
2638;SDS011;1329;51.384;7.122;2022-08-19T02:48:47;6.90;;;6.30;;
2638;SDS011;1329;51.384;7.122;2022-08-19T02:51:16;7.38;;;6.68;;
2638;SDS011;1329;51.384;7.122;2022-08-19T02:53:44;7.57;;;6.88;;
2638;SDS011;1329;51.384;7.122;2022-08-19T02:56:11;7.15;;;6.55;;
2638;SDS011;1329;51.384;7.122;2022-08-19T02:58:39;7.43;;;6.82;;
2638;SDS011;1329;51.384;7.122;2022-08-19T03:01:08;7.60;;;7.00;;
2638;SDS011;1329;51.384;7.122;2022-08-19T03:03:37;7.15;;;6.55;;
2638;SDS011;1329;51.384;7.122;2022-08-19T03:06:08;7.43;;;6.82;;
2638;SDS011;1329;51.384;7.122;2022-08-19T03:08:42;7.30;;;6.70;;
2638;SDS011;1329;51.384;7.122;2022-08-19T03:11:14;7.43;;;6.82;;
2638;SDS011;1329;51.384;7.122;2022-08-19T03:13:46;7.38;;;6.78;;
2638;SDS011;1329;51.384;7.122;2022-08-19T03:16:16;7.38;;;6.72;;
2638;SDS011;1329;51.384;7.122;2022-08-19T03:18:46;7.00;;;6.40;;
2638;SDS011;1329;51.384;7.122;2022-08-19T03:21:16;7.05;;;6.45;;
2638;SDS011;1329;51.384;7.122;2022-08-19T03:23:46;7.18;;;6.50;;
2638;SDS011;1329;51.384;7.122;2022-08-19T03:26:14;7.40;;;6.70;;
2638;SDS011;1329;51.384;7.122;2022-08-19T03:28:41;7.40;;;6.80;;
2638;SDS011;1329;51.384;7.122;2022-08-19T03:31:10;7.68;;;7.00;;
2638;SDS011;1329;51.384;7.122;2022-08-19T03:33:39;7.78;;;7.00;;
2638;SDS011;1329;51.384;7.122;2022-08-19T03:36:07;7.50;;;6.90;;
2638;SDS011;1329;51.384;7.122;2022-08-19T03:38:41;7.07;;;6.47;;
2638;SDS011;1329;51.384;7.122;2022-08-19T03:41:11;7.28;;;6.68;;
2638;SDS011;1329;51.384;7.122;2022-08-19T03:43:40;7.15;;;6.57;;
2638;SDS011;1329;51.384;7.122;2022-08-19T03:46:12;8.10;;;6.88;;
2638;SDS011;1329;51.384;7.122;2022-08-19T03:48:45;7.25;;;6.55;;
2638;SDS011;1329;51.384;7.122;2022-08-19T03:51:17;7.47;;;6.88;;
2638;SDS011;1329;51.384;7.122;2022-08-19T03:53:48;7.50;;;6.90;;
2638;SDS011;1329;51.384;7.122;2022-08-19T03:56:16;7.47;;;6.88;;
2638;SDS011;1329;51.384;7.122;2022-08-19T03:58:43;6.88;;;6.28;;
2638;SDS011;1329;51.384;7.122;2022-08-19T04:01:14;7.28;;;6.57;;
2638;SDS011;1329;51.384;7.122;2022-08-19T04:03:45;7.82;;;7.13;;
2638;SDS011;1329;51.384;7.122;2022-08-19T04:06:15;7.20;;;6.60;;
2638;SDS011;1329;51.384;7.122;2022-08-19T04:08:46;7.10;;;6.50;;
2638;SDS011;1329;51.384;7.122;2022-08-19T04:11:21;7.65;;;7.05;;
2638;SDS011;1329;51.384;7.122;2022-08-19T04:13:51;6.90;;;6.40;;
2638;SDS011;1329;51.384;7.122;2022-08-19T04:16:20;7.05;;;6.45;;
2638;SDS011;1329;51.384;7.122;2022-08-19T04:18:53;6.85;;;6.25;;
2638;SDS011;1329;51.384;7.122;2022-08-19T04:21:24;7.05;;;6.40;;
2638;SDS011;1329;51.384;7.122;2022-08-19T04:23:55;7.30;;;6.70;;
2638;SDS011;1329;51.384;7.122;2022-08-19T04:26:26;6.93;;;6.43;;
2638;SDS011;1329;51.384;7.122;2022-08-19T04:28:57;7.05;;;6.45;;
2638;SDS011;1329;51.384;7.122;2022-08-19T04:31:29;7.60;;;6.90;;
2638;SDS011;1329;51.384;7.122;2022-08-19T04:34:03;7.13;;;6.43;;
2638;SDS011;1329;51.384;7.122;2022-08-19T04:36:36;7.90;;;6.93;;
2638;SDS011;1329;51.384;7.122;2022-08-19T04:39:07;7.35;;;6.75;;
2638;SDS011;1329;51.384;7.122;2022-08-19T04:41:39;7.13;;;6.53;;
2638;SDS011;1329;51.384;7.122;2022-08-19T04:44:29;7.28;;;6.63;;
2638;SDS011;1329;51.384;7.122;2022-08-19T04:47:00;6.90;;;6.30;;
2638;SDS011;1329;51.384;7.122;2022-08-19T04:49:28;7.50;;;6.85;;
2638;SDS011;1329;51.384;7.122;2022-08-19T04:51:56;8.32;;;7.53;;
2638;SDS011;1329;51.384;7.122;2022-08-19T04:54:25;7.60;;;6.90;;
2638;SDS011;1329;51.384;7.122;2022-08-19T04:56:55;7.35;;;6.65;;
2638;SDS011;1329;51.384;7.122;2022-08-19T04:59:22;7.80;;;7.00;;
2638;SDS011;1329;51.384;7.122;2022-08-19T05:01:50;7.47;;;6.78;;
2638;SDS011;1329;51.384;7.122;2022-08-19T05:04:24;7.45;;;6.82;;
2638;SDS011;1329;51.384;7.122;2022-08-19T05:06:56;8.70;;;7.95;;
2638;SDS011;1329;51.384;7.122;2022-08-19T05:09:25;7.57;;;6.97;;
2638;SDS011;1329;51.384;7.122;2022-08-19T05:11:53;7.32;;;6.72;;
2638;SDS011;1329;51.384;7.122;2022-08-19T05:14:23;7.75;;;7.15;;
2638;SDS011;1329;51.384;7.122;2022-08-19T05:16:51;7.78;;;7.18;;
2638;SDS011;1329;51.384;7.122;2022-08-19T05:19:24;7.95;;;7.25;;
2638;SDS011;1329;51.384;7.122;2022-08-19T05:22:12;7.28;;;6.70;;
2638;SDS011;1329;51.384;7.122;2022-08-19T05:25:07;7.82;;;7.13;;
2638;SDS011;1329;51.384;7.122;2022-08-19T05:27:38;7.68;;;6.95;;
2638;SDS011;1329;51.384;7.122;2022-08-19T05:30:08;7.53;;;6.82;;
2638;SDS011;1329;51.384;7.122;2022-08-19T05:32:37;7.07;;;6.50;;
2638;SDS011;1329;51.384;7.122;2022-08-19T05:35:07;7.82;;;7.18;;
2638;SDS011;1329;51.384;7.122;2022-08-19T05:37:35;8.68;;;7.95;;
2638;SDS011;1329;51.384;7.122;2022-08-19T05:40:07;8.43;;;7.63;;
2638;SDS011;1329;51.384;7.122;2022-08-19T05:42:35;8.57;;;7.88;;
2638;SDS011;1329;51.384;7.122;2022-08-19T05:45:04;8.93;;;8.02;;
2638;SDS011;1329;51.384;7.122;2022-08-19T05:47:37;8.25;;;7.45;;
2638;SDS011;1329;51.384;7.122;2022-08-19T05:50:05;7.95;;;7.25;;
2638;SDS011;1329;51.384;7.122;2022-08-19T05:52:37;8.60;;;7.80;;
2638;SDS011;1329;51.384;7.122;2022-08-19T05:55:09;8.00;;;7.30;;
2638;SDS011;1329;51.384;7.122;2022-08-19T05:57:37;7.57;;;6.97;;
2638;SDS011;1329;51.384;7.122;2022-08-19T06:00:07;9.80;;;7.53;;
2638;SDS011;1329;51.384;7.122;2022-08-19T06:02:39;7.63;;;6.93;;
2638;SDS011;1329;51.384;7.122;2022-08-19T06:05:07;7.20;;;6.68;;
2638;SDS011;1329;51.384;7.122;2022-08-19T06:07:37;7.63;;;6.93;;
2638;SDS011;1329;51.384;7.122;2022-08-19T06:10:06;7.25;;;6.65;;
2638;SDS011;1329;51.384;7.122;2022-08-19T06:12:37;7.63;;;7.00;;
2638;SDS011;1329;51.384;7.122;2022-08-19T06:15:09;6.93;;;6.20;;
2638;SDS011;1329;51.384;7.122;2022-08-19T06:17:41;7.95;;;7.25;;
2638;SDS011;1329;51.384;7.122;2022-08-19T06:20:10;8.48;;;7.05;;
2638;SDS011;1329;51.384;7.122;2022-08-19T06:22:43;6.95;;;6.28;;
2638;SDS011;1329;51.384;7.122;2022-08-19T06:25:17;8.00;;;7.40;;
2638;SDS011;1329;51.384;7.122;2022-08-19T06:27:47;8.52;;;7.75;;
2638;SDS011;1329;51.384;7.122;2022-08-19T06:30:14;7.85;;;7.05;;
2638;SDS011;1329;51.384;7.122;2022-08-19T06:32:42;8.10;;;7.40;;
2638;SDS011;1329;51.384;7.122;2022-08-19T06:35:12;8.75;;;7.95;;
2638;SDS011;1329;51.384;7.122;2022-08-19T06:37:40;8.88;;;8.07;;
2638;SDS011;1329;51.384;7.122;2022-08-19T06:40:09;9.88;;;8.98;;
2638;SDS011;1329;51.384;7.122;2022-08-19T06:42:39;10.20;;;9.30;;
2638;SDS011;1329;51.384;7.122;2022-08-19T06:45:09;10.23;;;9.23;;
2638;SDS011;1329;51.384;7.122;2022-08-19T06:47:40;11.85;;;10.65;;
2638;SDS011;1329;51.384;7.122;2022-08-19T06:50:13;12.27;;;10.98;;
2638;SDS011;1329;51.384;7.122;2022-08-19T06:52:43;11.77;;;10.63;;
2638;SDS011;1329;51.384;7.122;2022-08-19T06:55:11;12.73;;;11.43;;
2638;SDS011;1329;51.384;7.122;2022-08-19T06:57:41;13.05;;;10.45;;
2638;SDS011;1329;51.384;7.122;2022-08-19T07:00:10;13.57;;;11.45;;
2638;SDS011;1329;51.384;7.122;2022-08-19T07:02:39;13.82;;;12.43;;
2638;SDS011;1329;51.384;7.122;2022-08-19T07:05:09;14.98;;;12.55;;
2638;SDS011;1329;51.384;7.122;2022-08-19T07:07:37;13.75;;;12.27;;
2638;SDS011;1329;51.384;7.122;2022-08-19T07:10:08;14.07;;;12.68;;
2638;SDS011;1329;51.384;7.122;2022-08-19T07:12:36;15.25;;;13.80;;
2638;SDS011;1329;51.384;7.122;2022-08-19T07:15:09;14.75;;;13.35;;
2638;SDS011;1329;51.384;7.122;2022-08-19T07:17:38;15.23;;;13.75;;
2638;SDS011;1329;51.384;7.122;2022-08-19T07:20:09;15.23;;;13.75;;
2638;SDS011;1329;51.384;7.122;2022-08-19T07:22:38;16.50;;;14.85;;
2638;SDS011;1329;51.384;7.122;2022-08-19T07:25:07;15.75;;;14.20;;
2638;SDS011;1329;51.384;7.122;2022-08-19T07:27:36;15.48;;;14.07;;
2638;SDS011;1329;51.384;7.122;2022-08-19T07:30:03;14.63;;;13.32;;
2638;SDS011;1329;51.384;7.122;2022-08-19T07:32:33;14.27;;;12.77;;
2638;SDS011;1329;51.384;7.122;2022-08-19T07:35:00;14.68;;;13.32;;
2638;SDS011;1329;51.384;7.122;2022-08-19T07:37:29;14.02;;;12.63;;
2638;SDS011;1329;51.384;7.122;2022-08-19T07:39:57;14.43;;;13.07;;
2638;SDS011;1329;51.384;7.122;2022-08-19T07:42:25;13.38;;;12.07;;
2638;SDS011;1329;51.384;7.122;2022-08-19T07:44:54;14.43;;;12.45;;
2638;SDS011;1329;51.384;7.122;2022-08-19T07:47:24;13.25;;;12.05;;
2638;SDS011;1329;51.384;7.122;2022-08-19T07:49:54;13.95;;;12.50;;
2638;SDS011;1329;51.384;7.122;2022-08-19T07:52:22;12.82;;;11.70;;
2638;SDS011;1329;51.384;7.122;2022-08-19T07:54:49;14.43;;;13.05;;
2638;SDS011;1329;51.384;7.122;2022-08-19T07:57:17;14.77;;;13.38;;
2638;SDS011;1329;51.384;7.122;2022-08-19T07:59:44;15.00;;;13.60;;
2638;SDS011;1329;51.384;7.122;2022-08-19T08:02:12;14.98;;;13.60;;
2638;SDS011;1329;51.384;7.122;2022-08-19T08:04:42;15.07;;;13.57;;
2638;SDS011;1329;51.384;7.122;2022-08-19T08:07:29;15.05;;;13.68;;
2638;SDS011;1329;51.384;7.122;2022-08-19T08:10:14;16.58;;;14.98;;
2638;SDS011;1329;51.384;7.122;2022-08-19T08:12:41;17.48;;;15.75;;
2638;SDS011;1329;51.384;7.122;2022-08-19T08:15:10;17.83;;;16.08;;
2638;SDS011;1329;51.384;7.122;2022-08-19T08:17:41;17.10;;;15.40;;
2638;SDS011;1329;51.384;7.122;2022-08-19T08:20:10;17.23;;;15.52;;
2638;SDS011;1329;51.384;7.122;2022-08-19T08:22:44;18.10;;;16.33;;
2638;SDS011;1329;51.384;7.122;2022-08-19T08:25:30;18.10;;;16.40;;
2638;SDS011;1329;51.384;7.122;2022-08-19T08:27:58;20.73;;;18.65;;
2638;SDS011;1329;51.384;7.122;2022-08-19T08:30:26;20.02;;;18.05;;
2638;SDS011;1329;51.384;7.122;2022-08-19T08:32:57;19.42;;;17.63;;
2638;SDS011;1329;51.384;7.122;2022-08-19T08:35:25;19.85;;;17.92;;
2638;SDS011;1329;51.384;7.122;2022-08-19T08:37:54;20.48;;;18.38;;
2638;SDS011;1329;51.384;7.122;2022-08-19T08:40:26;19.88;;;17.95;;
2638;SDS011;1329;51.384;7.122;2022-08-19T08:43:00;22.45;;;20.25;;
2638;SDS011;1329;51.384;7.122;2022-08-19T08:45:32;22.63;;;20.45;;
2638;SDS011;1329;51.384;7.122;2022-08-19T08:48:07;23.08;;;20.63;;
2638;SDS011;1329;51.384;7.122;2022-08-19T08:50:52;22.90;;;20.67;;
2638;SDS011;1329;51.384;7.122;2022-08-19T08:53:25;22.55;;;20.15;;
2638;SDS011;1329;51.384;7.122;2022-08-19T08:56:01;23.13;;;20.90;;
2638;SDS011;1329;51.384;7.122;2022-08-19T08:58:42;23.23;;;20.85;;
2638;SDS011;1329;51.384;7.122;2022-08-19T09:01:24;22.48;;;20.27;;
2638;SDS011;1329;51.384;7.122;2022-08-19T09:03:54;19.38;;;17.63;;
2638;SDS011;1329;51.384;7.122;2022-08-19T09:06:24;22.38;;;20.20;;
2638;SDS011;1329;51.384;7.122;2022-08-19T09:09:05;24.67;;;22.42;;
2638;SDS011;1329;51.384;7.122;2022-08-19T09:11:50;25.95;;;23.45;;
2638;SDS011;1329;51.384;7.122;2022-08-19T09:14:39;23.30;;;21.00;;
2638;SDS011;1329;51.384;7.122;2022-08-19T09:17:20;24.15;;;21.98;;
2638;SDS011;1329;51.384;7.122;2022-08-19T09:19:56;21.88;;;19.88;;
2638;SDS011;1329;51.384;7.122;2022-08-19T09:22:32;21.67;;;19.65;;
2638;SDS011;1329;51.384;7.122;2022-08-19T09:25:03;20.20;;;18.35;;
2638;SDS011;1329;51.384;7.122;2022-08-19T09:27:33;19.85;;;18.08;;
2638;SDS011;1329;51.384;7.122;2022-08-19T09:30:04;20.80;;;18.98;;
2638;SDS011;1329;51.384;7.122;2022-08-19T09:32:35;19.55;;;17.75;;
2638;SDS011;1329;51.384;7.122;2022-08-19T09:35:06;19.40;;;17.70;;
2638;SDS011;1329;51.384;7.122;2022-08-19T09:37:37;20.50;;;16.55;;
2638;SDS011;1329;51.384;7.122;2022-08-19T09:40:07;17.15;;;15.68;;
2638;SDS011;1329;51.384;7.122;2022-08-19T09:42:36;16.40;;;15.00;;
2638;SDS011;1329;51.384;7.122;2022-08-19T09:45:09;15.02;;;13.63;;
2638;SDS011;1329;51.384;7.122;2022-08-19T09:47:36;15.52;;;14.13;;
2638;SDS011;1329;51.384;7.122;2022-08-19T09:50:04;15.65;;;14.23;;
2638;SDS011;1329;51.384;7.122;2022-08-19T09:52:34;14.00;;;12.80;;
2638;SDS011;1329;51.384;7.122;2022-08-19T09:55:03;14.05;;;12.73;;
2638;SDS011;1329;51.384;7.122;2022-08-19T09:57:33;12.82;;;11.70;;
2638;SDS011;1329;51.384;7.122;2022-08-19T10:00:04;13.50;;;12.30;;
2638;SDS011;1329;51.384;7.122;2022-08-19T10:02:35;12.57;;;11.40;;
2638;SDS011;1329;51.384;7.122;2022-08-19T10:05:02;11.85;;;10.75;;
2638;SDS011;1329;51.384;7.122;2022-08-19T10:07:48;12.48;;;11.35;;
2638;SDS011;1329;51.384;7.122;2022-08-19T10:10:18;11.60;;;10.65;;
2638;SDS011;1329;51.384;7.122;2022-08-19T10:12:51;12.55;;;11.35;;
2638;SDS011;1329;51.384;7.122;2022-08-19T10:15:20;11.20;;;10.18;;
2638;SDS011;1329;51.384;7.122;2022-08-19T10:17:48;12.18;;;10.98;;
2638;SDS011;1329;51.384;7.122;2022-08-19T10:20:15;11.02;;;10.02;;
2638;SDS011;1329;51.384;7.122;2022-08-19T10:22:45;9.65;;;8.85;;
2638;SDS011;1329;51.384;7.122;2022-08-19T10:25:13;11.13;;;10.13;;
2638;SDS011;1329;51.384;7.122;2022-08-19T10:27:42;10.20;;;9.30;;
2638;SDS011;1329;51.384;7.122;2022-08-19T10:30:12;9.75;;;8.80;;
2638;SDS011;1329;51.384;7.122;2022-08-19T10:32:40;10.93;;;10.00;;
2638;SDS011;1329;51.384;7.122;2022-08-19T10:35:07;12.18;;;11.07;;
2638;SDS011;1329;51.384;7.122;2022-08-19T10:37:37;11.65;;;10.55;;
2638;SDS011;1329;51.384;7.122;2022-08-19T10:40:06;12.45;;;11.25;;
2638;SDS011;1329;51.384;7.122;2022-08-19T10:42:36;13.13;;;11.95;;
2638;SDS011;1329;51.384;7.122;2022-08-19T10:45:05;12.73;;;11.52;;
2638;SDS011;1329;51.384;7.122;2022-08-19T10:47:37;13.55;;;12.25;;
2638;SDS011;1329;51.384;7.122;2022-08-19T10:50:07;13.07;;;11.85;;
2638;SDS011;1329;51.384;7.122;2022-08-19T10:52:56;14.63;;;13.35;;
2638;SDS011;1329;51.384;7.122;2022-08-19T10:55:30;12.55;;;11.45;;
2638;SDS011;1329;51.384;7.122;2022-08-19T10:58:18;13.98;;;12.70;;
2638;SDS011;1329;51.384;7.122;2022-08-19T11:00:51;13.85;;;12.55;;
2638;SDS011;1329;51.384;7.122;2022-08-19T11:03:21;14.02;;;12.73;;
2638;SDS011;1329;51.384;7.122;2022-08-19T11:05:56;14.07;;;12.85;;
2638;SDS011;1329;51.384;7.122;2022-08-19T11:08:27;13.57;;;12.38;;
2638;SDS011;1329;51.384;7.122;2022-08-19T11:10:58;14.13;;;12.82;;
2638;SDS011;1329;51.384;7.122;2022-08-19T11:13:28;13.90;;;12.73;;
2638;SDS011;1329;51.384;7.122;2022-08-19T11:15:59;14.95;;;13.45;;
2638;SDS011;1329;51.384;7.122;2022-08-19T11:18:38;14.55;;;13.20;;
2638;SDS011;1329;51.384;7.122;2022-08-19T11:21:09;11.80;;;10.77;;
2638;SDS011;1329;51.384;7.122;2022-08-19T11:23:47;11.05;;;10.15;;
2638;SDS011;1329;51.384;7.122;2022-08-19T11:26:19;15.75;;;14.35;;
2638;SDS011;1329;51.384;7.122;2022-08-19T11:28:48;15.13;;;13.63;;
2638;SDS011;1329;51.384;7.122;2022-08-19T11:31:20;13.55;;;12.35;;
2638;SDS011;1329;51.384;7.122;2022-08-19T11:33:52;12.68;;;11.57;;
2638;SDS011;1329;51.384;7.122;2022-08-19T11:36:20;14.25;;;12.93;;
2638;SDS011;1329;51.384;7.122;2022-08-19T11:38:48;14.85;;;13.55;;
2638;SDS011;1329;51.384;7.122;2022-08-19T11:41:21;16.15;;;14.85;;
2638;SDS011;1329;51.384;7.122;2022-08-19T11:43:51;15.38;;;14.13;;
2638;SDS011;1329;51.384;7.122;2022-08-19T11:46:21;14.30;;;13.13;;
2638;SDS011;1329;51.384;7.122;2022-08-19T11:48:51;14.55;;;13.40;;
2638;SDS011;1329;51.384;7.122;2022-08-19T11:51:21;13.45;;;12.35;;
2638;SDS011;1329;51.384;7.122;2022-08-19T11:53:51;12.13;;;11.13;;
2638;SDS011;1329;51.384;7.122;2022-08-19T11:56:20;13.60;;;12.40;;
2638;SDS011;1329;51.384;7.122;2022-08-19T11:58:49;12.75;;;11.57;;
2638;SDS011;1329;51.384;7.122;2022-08-19T12:01:21;12.32;;;11.18;;
2638;SDS011;1329;51.384;7.122;2022-08-19T12:03:57;11.90;;;10.80;;
2638;SDS011;1329;51.384;7.122;2022-08-19T12:06:27;11.63;;;10.63;;
2638;SDS011;1329;51.384;7.122;2022-08-19T12:09:10;10.68;;;9.57;;
2638;SDS011;1329;51.384;7.122;2022-08-19T12:11:39;9.98;;;9.18;;
2638;SDS011;1329;51.384;7.122;2022-08-19T12:14:08;10.25;;;9.30;;
2638;SDS011;1329;51.384;7.122;2022-08-19T12:16:39;10.65;;;9.75;;
2638;SDS011;1329;51.384;7.122;2022-08-19T12:19:09;10.15;;;9.25;;
2638;SDS011;1329;51.384;7.122;2022-08-19T12:21:41;10.07;;;9.23;;
2638;SDS011;1329;51.384;7.122;2022-08-19T12:24:08;8.68;;;7.97;;
2638;SDS011;1329;51.384;7.122;2022-08-19T12:26:37;8.00;;;7.18;;
2638;SDS011;1329;51.384;7.122;2022-08-19T12:29:07;9.50;;;7.95;;
2638;SDS011;1329;51.384;7.122;2022-08-19T12:31:37;8.63;;;7.93;;
2638;SDS011;1329;51.384;7.122;2022-08-19T12:34:17;7.93;;;7.30;;
2638;SDS011;1329;51.384;7.122;2022-08-19T12:36:48;7.72;;;7.07;;
2638;SDS011;1329;51.384;7.122;2022-08-19T12:39:19;7.50;;;6.90;;
2638;SDS011;1329;51.384;7.122;2022-08-19T12:41:46;6.20;;;5.60;;
2638;SDS011;1329;51.384;7.122;2022-08-19T12:44:21;6.90;;;6.40;;
2638;SDS011;1329;51.384;7.122;2022-08-19T12:46:51;7.28;;;6.68;;
2638;SDS011;1329;51.384;7.122;2022-08-19T12:49:20;6.50;;;5.97;;
2638;SDS011;1329;51.384;7.122;2022-08-19T12:51:47;5.97;;;5.47;;
2638;SDS011;1329;51.384;7.122;2022-08-19T12:54:15;5.85;;;5.40;;
2638;SDS011;1329;51.384;7.122;2022-08-19T12:56:42;6.72;;;6.13;;
2638;SDS011;1329;51.384;7.122;2022-08-19T12:59:16;7.35;;;6.82;;
2638;SDS011;1329;51.384;7.122;2022-08-19T13:01:45;6.60;;;6.10;;
2638;SDS011;1329;51.384;7.122;2022-08-19T13:04:16;6.80;;;6.30;;
2638;SDS011;1329;51.384;7.122;2022-08-19T13:06:45;7.03;;;6.43;;
2638;SDS011;1329;51.384;7.122;2022-08-19T13:09:14;7.00;;;6.50;;
2638;SDS011;1329;51.384;7.122;2022-08-19T13:11:42;6.45;;;5.95;;
2638;SDS011;1329;51.384;7.122;2022-08-19T13:14:10;6.88;;;6.28;;
2638;SDS011;1329;51.384;7.122;2022-08-19T13:16:42;6.50;;;5.90;;
2638;SDS011;1329;51.384;7.122;2022-08-19T13:19:10;6.85;;;6.20;;
2638;SDS011;1329;51.384;7.122;2022-08-19T13:21:38;6.30;;;5.80;;
2638;SDS011;1329;51.384;7.122;2022-08-19T13:24:11;6.30;;;5.75;;
2638;SDS011;1329;51.384;7.122;2022-08-19T13:26:43;5.88;;;5.47;;
2638;SDS011;1329;51.384;7.122;2022-08-19T13:29:10;5.47;;;4.97;;
2638;SDS011;1329;51.384;7.122;2022-08-19T13:31:56;5.30;;;4.90;;
2638;SDS011;1329;51.384;7.122;2022-08-19T13:34:50;5.22;;;4.82;;
2638;SDS011;1329;51.384;7.122;2022-08-19T13:37:17;4.97;;;4.63;;
2638;SDS011;1329;51.384;7.122;2022-08-19T13:40:09;4.68;;;4.28;;
2638;SDS011;1329;51.384;7.122;2022-08-19T13:42:43;6.15;;;5.57;;
2638;SDS011;1329;51.384;7.122;2022-08-19T13:45:15;5.65;;;5.18;;
2638;SDS011;1329;51.384;7.122;2022-08-19T13:47:45;5.63;;;5.13;;
2638;SDS011;1329;51.384;7.122;2022-08-19T13:50:19;6.05;;;5.45;;
2638;SDS011;1329;51.384;7.122;2022-08-19T13:52:55;5.78;;;5.18;;
2638;SDS011;1329;51.384;7.122;2022-08-19T13:55:29;5.72;;;5.15;;
2638;SDS011;1329;51.384;7.122;2022-08-19T13:57:59;5.18;;;4.75;;
2638;SDS011;1329;51.384;7.122;2022-08-19T14:00:30;5.35;;;4.85;;
2638;SDS011;1329;51.384;7.122;2022-08-19T14:03:03;4.70;;;4.30;;
2638;SDS011;1329;51.384;7.122;2022-08-19T14:05:31;4.40;;;4.03;;
2638;SDS011;1329;51.384;7.122;2022-08-19T14:07:59;4.40;;;4.10;;
2638;SDS011;1329;51.384;7.122;2022-08-19T14:10:30;4.47;;;4.18;;
2638;SDS011;1329;51.384;7.122;2022-08-19T14:13:01;4.82;;;4.22;;
2638;SDS011;1329;51.384;7.122;2022-08-19T14:15:36;4.72;;;4.32;;
2638;SDS011;1329;51.384;7.122;2022-08-19T14:18:07;4.78;;;4.38;;
2638;SDS011;1329;51.384;7.122;2022-08-19T14:20:37;5.10;;;4.68;;
2638;SDS011;1329;51.384;7.122;2022-08-19T14:23:07;4.55;;;4.15;;
2638;SDS011;1329;51.384;7.122;2022-08-19T14:25:42;4.78;;;4.07;;
2638;SDS011;1329;51.384;7.122;2022-08-19T14:28:11;4.18;;;3.88;;
2638;SDS011;1329;51.384;7.122;2022-08-19T14:30:42;4.07;;;3.78;;
2638;SDS011;1329;51.384;7.122;2022-08-19T14:33:12;4.55;;;3.75;;
2638;SDS011;1329;51.384;7.122;2022-08-19T14:35:40;5.15;;;3.38;;
2638;SDS011;1329;51.384;7.122;2022-08-19T14:38:14;3.75;;;3.45;;
2638;SDS011;1329;51.384;7.122;2022-08-19T14:40:49;5.15;;;3.55;;
2638;SDS011;1329;51.384;7.122;2022-08-19T14:43:17;3.92;;;3.53;;
2638;SDS011;1329;51.384;7.122;2022-08-19T14:45:47;3.80;;;3.42;;
2638;SDS011;1329;51.384;7.122;2022-08-19T14:48:19;4.82;;;4.05;;
2638;SDS011;1329;51.384;7.122;2022-08-19T14:50:48;3.75;;;3.45;;
2638;SDS011;1329;51.384;7.122;2022-08-19T14:53:17;3.88;;;3.58;;
2638;SDS011;1329;51.384;7.122;2022-08-19T14:55:49;3.90;;;3.55;;
2638;SDS011;1329;51.384;7.122;2022-08-19T14:58:16;4.25;;;3.95;;
2638;SDS011;1329;51.384;7.122;2022-08-19T15:00:45;4.60;;;3.92;;
2638;SDS011;1329;51.384;7.122;2022-08-19T15:03:14;4.30;;;3.90;;
2638;SDS011;1329;51.384;7.122;2022-08-19T15:05:45;4.90;;;3.92;;
2638;SDS011;1329;51.384;7.122;2022-08-19T15:08:15;3.85;;;3.55;;
2638;SDS011;1329;51.384;7.122;2022-08-19T15:10:49;4.05;;;3.70;;
2638;SDS011;1329;51.384;7.122;2022-08-19T15:13:19;4.60;;;3.70;;
2638;SDS011;1329;51.384;7.122;2022-08-19T15:15:47;4.38;;;3.97;;
2638;SDS011;1329;51.384;7.122;2022-08-19T15:18:19;4.03;;;3.63;;
2638;SDS011;1329;51.384;7.122;2022-08-19T15:20:48;4.70;;;3.97;;
2638;SDS011;1329;51.384;7.122;2022-08-19T15:23:16;4.35;;;3.95;;
2638;SDS011;1329;51.384;7.122;2022-08-19T15:25:46;4.60;;;4.20;;
2638;SDS011;1329;51.384;7.122;2022-08-19T15:28:39;4.57;;;4.18;;